Weather reports worldwide

Advertisment
Rodkallen, Sweden (2188): temperature & dewpoint: 19.01.2017 02:00:00 - 25.01.2017 02:00:00 (CET)Rodkallen, Sweden (2188): wind speed & gusts: 19.01.2017 02:00:00 - 25.01.2017 02:00:00 (CET)Rodkallen, Sweden (2188): wind direction: 19.01.2017 02:00:00 - 25.01.2017 02:00:00 (CET)Rodkallen, Sweden (2188): visibility: 19.01.2017 02:00:00 - 25.01.2017 02:00:00 (CET)Rodkallen, Sweden (2188): precipitation: 19.01.2017 02:00:00 - 25.01.2017 02:00:00 (CET)
Date & Time tt [°C] td [°C] ff [km/h] ff [kn] fx [km/h] fx [kn] dd vv [km] rr [mm]
25.01.2017 02:00:00 - - - - - - - - -
25.01.2017 01:00:00 -2,0 -2,7 35 19 44 24 S 23 0,0
25.01.2017 00:00:00 -2,3 -3,3 32 17 39 21 SSW 50 0,0
24.01.2017 23:00:00 -3,3 -4,1 28 15 34 18 S 50 0,0
24.01.2017 22:00:00 -4,6 -4,6 23 12 29 16 S 38 0,0
24.01.2017 21:00:00 -5,0 -5,0 18 10 25 14 SSW 50 0,0
24.01.2017 20:00:00 -5,3 -5,3 15 8 23 13 S 23 0,0
24.01.2017 19:00:00 -5,9 -5,9 10 6 18 10 SSE 4,3 0,0
24.01.2017 18:00:00 -7,0 -7,0 10 5 19 10 SSE 0,9 0,0
24.01.2017 17:00:00 -7,8 -7,8 3 2 6 4 SSE 25 0,0
24.01.2017 16:00:00 -9,5 -9,5 0 0 6 3 N 48 0,0
24.01.2017 15:00:00 -9,6 -9,6 4 2 9 5 N 50 0,0
24.01.2017 14:00:00 -9,1 -9,1 3 2 9 5 N 50 0,0
24.01.2017 13:00:00 -9,0 -9,0 7 4 14 8 NNW 50 0,0
24.01.2017 12:00:00 -9,5 -9,7 11 6 19 10 N 50 0,0
24.01.2017 11:00:00 -9,4 -9,8 15 8 19 10 N 47 0,0
24.01.2017 10:00:00 -9,4 -9,8 14 8 26 14 N 46 0,0
24.01.2017 09:00:00 -9,6 -9,6 14 8 24 13 NNW 49 0,0
24.01.2017 08:00:00 -9,0 -9,2 18 10 25 14 NNW 49 0,0
24.01.2017 07:00:00 -8,7 -8,9 16 9 24 13 NNW 50 0,0
24.01.2017 06:00:00 -8,6 -8,7 16 8 22 12 NNW 50 0,0
24.01.2017 05:00:00 -8,3 -8,6 14 7 25 14 NNW 50 0,0
24.01.2017 04:00:00 -8,4 -8,5 16 8 26 14 NNW 45 0,0
24.01.2017 03:00:00 -7,8 -8,2 17 9 27 14 NNW 50 0,0
24.01.2017 02:00:00 -7,5 -7,9 16 9 26 14 NNW 50 0,0
24.01.2017 01:00:00 -7,3 -7,3 18 10 30 16 NNW 50 0,0
24.01.2017 00:00:00 -7,0 -7,3 19 11 33 18 NNW 50 0,0
23.01.2017 23:00:00 -6,3 -7,0 23 12 31 17 NNW 50 0,0
23.01.2017 22:00:00 -5,7 -6,5 22 12 33 18 N 50 0,0
23.01.2017 21:00:00 -5,3 -5,3 27 14 35 19 N 14 0,0
23.01.2017 20:00:00 -5,3 -6,0 23 12 35 19 N 50 0,0
23.01.2017 19:00:00 -5,3 -5,8 23 13 36 19 N 50 0,0
23.01.2017 18:00:00 -5,0 -5,2 27 15 37 20 N 50 0,0
23.01.2017 17:00:00 -5,0 -5,2 26 14 35 19 N 50 0,0
23.01.2017 16:00:00 -5,3 -5,3 23 12 36 19 NNW 50 0,0
23.01.2017 15:00:00 -5,6 -5,7 23 12 35 19 N 50 0,0
23.01.2017 14:00:00 -5,3 -5,3 26 14 35 19 N 45 0,0
23.01.2017 13:00:00 -4,8 -4,8 25 13 31 17 N 37 0,1
23.01.2017 12:00:00 -4,0 -4,0 23 12 30 16 N 2,5 0,5
23.01.2017 11:00:00 -3,2 -3,2 26 14 29 16 NNE 3,2 0,6
23.01.2017 10:00:00 -2,8 -2,8 23 12 28 15 NE 4,5 0,7
23.01.2017 09:00:00 -2,8 -2,8 23 13 27 15 NE 4,3 0,3
23.01.2017 08:00:00 -2,0 -2,0 20 11 23 12 ENE 2,7 0,4
23.01.2017 07:00:00 -1,4 -1,4 12 6 14 8 NE 3,3 0,1
23.01.2017 06:00:00 -0,9 -0,9 8 5 11 6 NNE 12 0,0
23.01.2017 05:00:00 -0,3 -0,3 7 4 10 5 ESE 44 0,0
23.01.2017 04:00:00 -0,3 -0,3 8 5 11 6 ENE 45 0,0
23.01.2017 03:00:00 -0,3 -0,3 9 5 11 6 NE 50 0,0
23.01.2017 02:00:00 0,2 0,2 10 5 18 10 NW 50 0,0
23.01.2017 01:00:00 0,5 0,5 13 7 22 12 WNW 50 0,0
23.01.2017 00:00:00 0,8 0,8 19 10 23 12 WSW 50 0,0
22.01.2017 23:00:00 0,7 0,7 15 8 23 12 SW 50 0,0
22.01.2017 22:00:00 0,6 0,6 20 11 24 13 SSW 50 0,0
22.01.2017 21:00:00 0,8 0,8 19 10 23 12 SSW 50 0,0
22.01.2017 20:00:00 -0,2 -0,2 10 6 22 12 S 42 0,0
22.01.2017 19:00:00 -0,4 -0,4 14 7 23 12 S 18 0,0
22.01.2017 18:00:00 -0,2 -0,2 16 9 24 13 S 0,4 0,0
22.01.2017 17:00:00 -0,1 -0,1 19 10 23 12 SSE 0,5 0,0
22.01.2017 16:00:00 -0,4 -0,4 17 9 24 13 SE 1,2 0,0
22.01.2017 15:00:00 -0,9 -0,9 18 10 22 12 SE 5 0,0
22.01.2017 14:00:00 -1,0 -1,0 16 9 20 11 SSE 3,5 0,1
22.01.2017 13:00:00 -1,2 -1,2 13 7 18 10 ESE 40 0,0
22.01.2017 12:00:00 -1,4 -1,4 8 4 14 7 E 37 0,0
22.01.2017 11:00:00 -1,7 -1,7 7 4 9 5 ENE 18 0,0
22.01.2017 10:00:00 -1,7 -2,4 6 4 9 5 S 42 0,1
22.01.2017 09:00:00 -2,4 -2,4 0 0 6 3 N 38 0,0
22.01.2017 08:00:00 -2,4 -2,4 3 1 6 3 N 43 0,0
22.01.2017 07:00:00 -2,4 -2,4 2 1 5 3 NW 45 0,0
22.01.2017 06:00:00 -2,3 -2,3 0 0 8 4 N 42 0,0
22.01.2017 05:00:00 -2,6 -2,6 6 3 10 5 WNW 38 0,0
22.01.2017 04:00:00 -2,8 -2,8 9 5 18 10 WNW 47 0,0
22.01.2017 03:00:00 -2,0 -2,0 11 6 18 10 NW 47 0,0
22.01.2017 02:00:00 -2,0 -2,0 12 6 19 10 W 41 0,0
22.01.2017 01:00:00 -2,2 -2,2 16 9 18 10 W 41 0,0
22.01.2017 00:00:00 -2,0 -2,0 13 7 16 9 WNW 11 0,0
21.01.2017 23:00:00 -2,2 -2,2 8 4 18 10 WNW 6 0,1
21.01.2017 22:00:00 -1,8 -1,8 14 7 23 12 WNW 5 0,0
21.01.2017 21:00:00 -1,7 -1,7 18 10 25 14 WNW 5 0,0
21.01.2017 20:00:00 -1,1 -3,3 16 9 20 11 WSW 50 0,0
21.01.2017 19:00:00 -1,1 -2,5 11 6 19 10 SSW 39 0,0
21.01.2017 18:00:00 -1,8 -4,0 3 2 10 6 SSW 32 0,0
21.01.2017 17:00:00 -2,0 -4,7 9 5 18 10 WSW 24 0,0
21.01.2017 16:00:00 -2,2 -4,7 14 7 20 11 WSW 50 0,0
21.01.2017 15:00:00 -2,4 -5,2 18 10 24 13 WSW 48 0,0
21.01.2017 14:00:00 -2,4 -5,0 14 7 20 11 W 50 0,0
21.01.2017 13:00:00 -2,2 -6,0 16 9 31 17 W 50 0,0
21.01.2017 12:00:00 -2,1 -5,8 26 14 30 16 W 50 0,0
21.01.2017 11:00:00 -1,9 -6,1 24 13 31 17 W 50 0,0
21.01.2017 10:00:00 -1,6 -5,8 26 14 37 20 W 50 0,0
21.01.2017 09:00:00 -2,2 -5,5 26 14 34 18 W 50 0,0
21.01.2017 08:00:00 -2,2 -5,5 24 13 33 18 W 50 0,0
21.01.2017 07:00:00 -3,0 -6,6 19 10 32 17 WNW 50 0,0
21.01.2017 06:00:00 -2,1 -5,2 28 15 42 23 WNW 50 0,0
21.01.2017 05:00:00 -1,7 -4,2 29 16 40 22 W 50 0,0
21.01.2017 04:00:00 -1,4 -4,4 33 18 41 22 W 50 0,0
21.01.2017 03:00:00 -1,4 -4,4 35 19 45 24 WSW 50 0,0
21.01.2017 02:00:00 -1,5 -4,4 32 17 41 22 WSW 50 0,0
21.01.2017 01:00:00 -1,3 -4,5 24 13 29 16 WSW 50 0,0
21.01.2017 00:00:00 -1,2 -4,2 26 14 34 19 W 50 0,0
20.01.2017 23:00:00 -1,0 -4,4 27 15 37 20 WSW 50 0,0
20.01.2017 22:00:00 -0,8 -4,6 31 17 38 20 W 50 0,0
20.01.2017 21:00:00 -1,2 -4,2 29 16 43 23 W 50 0,0
20.01.2017 20:00:00 -0,7 -4,4 37 20 45 24 WSW 50 0,0
20.01.2017 19:00:00 -0,7 -4,2 36 19 42 23 WSW 50 0,0
20.01.2017 18:00:00 -0,8 -3,8 33 18 41 22 WSW 50 0,0
20.01.2017 17:00:00 -0,8 -3,7 32 17 41 22 WSW 50 0,0
20.01.2017 16:00:00 -1,0 -4,0 27 15 34 19 WSW 50 0,0
20.01.2017 15:00:00 -0,8 -3,8 29 16 38 21 WSW 50 0,0
20.01.2017 14:00:00 -0,7 -3,6 32 17 41 22 SW 50 0,0
20.01.2017 13:00:00 -0,9 -3,9 33 18 49 26 SW 50 0,0
20.01.2017 12:00:00 -1,0 -4,2 38 21 51 28 SW 50 0,0
20.01.2017 11:00:00 -1,1 -4,3 39 21 54 29 SW 50 0,0
20.01.2017 10:00:00 -1,2 -4,3 43 23 56 30 SW 50 0,0
20.01.2017 09:00:00 -1,3 -4,7 45 24 56 31 SW 50 0,0
20.01.2017 08:00:00 -1,4 -4,7 44 24 58 31 SW 50 0,0
20.01.2017 07:00:00 -1,4 -5,1 42 23 56 30 SW 50 0,0
20.01.2017 06:00:00 -1,7 -5,1 43 23 56 30 SW 50 0,0
20.01.2017 05:00:00 -1,9 -5,4 46 25 57 31 SW 50 0,0
20.01.2017 04:00:00 -2,0 -5,7 42 23 52 28 SW 50 0,0
20.01.2017 03:00:00 -2,3 -6,4 33 18 47 25 SW 50 0,0
20.01.2017 02:00:00 -2,1 -7,0 30 16 43 23 WSW 50 0,0
20.01.2017 01:00:00 -2,2 -7,1 34 18 41 22 WSW 45 0,0
20.01.2017 00:00:00 -1,7 -8,2 34 19 46 25 W 49 0,0
19.01.2017 23:00:00 -2,0 -7,9 28 15 47 25 W 50 0,0
19.01.2017 22:00:00 -1,9 -8,2 38 20 58 32 W 50 0,0
19.01.2017 21:00:00 -1,8 -7,7 36 19 60 32 WNW 50 0,0
19.01.2017 20:00:00 -1,4 -8,8 46 25 71 39 WNW 50 0,0
19.01.2017 19:00:00 -1,0 -8,2 50 27 90 48 WNW 50 0,0
19.01.2017 18:00:00 0,0 -6,2 66 35 96 52 W 50 0,0
19.01.2017 17:00:00 1,0 -6,1 68 37 87 47 W 49 0,0
19.01.2017 16:00:00 1,5 -4,8 50 27 75 40 W 50 0,0
19.01.2017 15:00:00 1,9 -4,4 55 30 69 37 W 50 0,0
19.01.2017 14:00:00 1,8 -0,8 35 19 53 29 W 50 0,0
19.01.2017 13:00:00 2,8 -1,4 45 24 61 33 W 50 0,0
19.01.2017 12:00:00 2,9 0,0 57 31 91 49 W 50 0,0
19.01.2017 11:00:00 1,4 1,4 48 26 69 38 SSW 12 0,0
19.01.2017 10:00:00 1,8 0,9 58 31 71 38 SSW 22 0,0
19.01.2017 09:00:00 1,6 0,8 54 29 71 39 S 18 0,0
19.01.2017 08:00:00 1,6 0,9 55 30 63 34 S 28 0,0
19.01.2017 07:00:00 1,7 0,6 37 20 45 25 S 50 0,0
19.01.2017 06:00:00 1,9 0,1 34 19 41 22 SSW 50 0,0
19.01.2017 05:00:00 1,4 0,3 22 12 26 14 SW 50 0,0
19.01.2017 04:00:00 2,7 -0,6 24 13 35 19 W 50 0,0
19.01.2017 03:00:00 3,2 -1,4 34 18 51 27 W 50 0,0
19.01.2017 02:00:00 3,6 -1,1 39 21 55 30 W 50 0,0

tt = temperature
td = dewpoint
ff = wind speed
fx = gusts
dd = wind direction
vv = visibility
rr = precipitation

Next stations